03:08
Airports
Links
Donate
Help keep this website running!
PayPal
Bitcoin
METAR
CYUY 180300Z 21012G18KT 15SM -SN OVC060 M04/M09 A2972 RMK SC8 SLP086
Current Weather Conditions at CYUY
VFR 03:00:00 18-02-18
Altimeter:29.72 hg
Temp:-4.0°c 25°f
Dew point:-9.0°c 16°f
Wind:12 knots, 13.8 mph, 6 m/s, from 210°
Visibility:15.0 statute miles
6000(OVC) Overcast
Past METAR reports
VFR 02:00:00 18-02-18
Altimeter:29.72 hg
Temp:-4.0°c 25°f
Dew point:-9.0°c 16°f
Wind:14 knots, 16.1 mph, 7 m/s, from 210°
Visibility:15.0 statute miles
6000(OVC) Overcast
CYUY 180200Z 21014G21KT 15SM -SN OVC060 M04/M09 A2972 RMK SC8 SLP090
VFR 01:07:00 18-02-18
Altimeter:29.72 hg
Temp:-4.0°c 25°f
Dew point:-9.0°c 16°f
Wind:14 knots, 16.1 mph, 7 m/s, from 200°
Visibility:15.0 statute miles
6000(OVC) Overcast
CYUY 180107Z 20014G23KT 15SM -SN OVC060 M04/M09 A2972 RMK SC8 PRESFR SLP090
VFR 01:00:00 18-02-18
Altimeter:29.72 hg
Temp:-4.0°c 25°f
Dew point:-9.0°c 16°f
Wind:12 knots, 13.8 mph, 6 m/s, from 200°
Visibility:15.0 statute miles
5200(OVC) Overcast
CYUY 180100Z 20012G18KT 15SM OVC052 M04/M09 A2972 RMK SC8 SLP091
VFR 00:00:00 18-02-18
Altimeter:29.74 hg
Temp:-4.0°c 25°f
Dew point:-9.0°c 16°f
Wind:11 knots, 12.7 mph, 6 m/s, from 200°
Visibility:15.0 statute miles
5500(OVC) Overcast
3000(FEW) A few
CYUY 180000Z 20011KT 15SM FEW030 OVC055 M04/M09 A2974 RMK SC2SC6 SLP096
VFR 23:00:00 17-02-18
Altimeter:29.74 hg
Temp:-4.0°c 25°f
Dew point:-10.0°c 14°f
Wind:12 knots, 13.8 mph, 6 m/s, from 210°
Visibility:15.0 statute miles
23000(OVC) Overcast
9000(BKN) Broken
3000(FEW) A few
CYUY 172300Z 21012G21KT 15SM FEW030 BKN090 OVC230 M04/M10 A2974 RMK SF1AC6CS2 SF TR SLP096
VFR 22:00:00 17-02-18
Altimeter:29.71 hg
Temp:-4.0°c 25°f
Dew point:-10.0°c 14°f
Wind:13 knots, 15 mph, 7 m/s, from 210°
Visibility:15.0 statute miles
19000(OVC) Overcast
12000(SCT) Scattered
3000(FEW) A few
CYUY 172200Z 21013G21KT 15SM FEW030 SCT120 OVC190 M04/M10 A2971 RMK SF1AC4AS4 SF TR SLP087
TAF
TAF CYUY 172338Z 1800/1812 22012G22KT P6SM SCT020 BKN080 TEMPO 1800/1808 21/2SM -SN OVC020 BECMG 1800/1802 22008KT FM180800 23007KT 5SM -SN BKN007 RMK NXT FCST BY 180600Z
Forecast at CYUY
00:00 18-02-18 to 12:00 18-02-18
Wind:12 Knots from 220°
Visibility:6.21 statute miles
2000SCT Scattered
8000BKN Broken
TEMPO 00:00 18-02-18 to 08:00 18-02-18
-SN
Visibility:2.5 statute miles
2000OVC Overcast
BECMG 00:00 18-02-18 to 08:00 18-02-18
Wind:8 Knots from 220°
Visibility:6.21 statute miles
2000SCT Scattered
8000BKN Broken
FM 08:00 18-02-18 to 12:00 18-02-18
-SN
Wind:7 Knots from 230°
Visibility:5.0 statute miles
700BKN Broken